sensor_id;sensor_type;location;lat;lon;timestamp;pressure;altitude;pressure_sealevel;temperature;humidity
4123;BME280;2075;51.062;6.920;2023-04-16T00:01:58;-11665.53;;;-144.48;100.00
4123;BME280;2075;51.062;6.920;2023-04-16T00:04:45;-11665.53;;;-144.48;100.00
4123;BME280;2075;51.062;6.920;2023-04-16T00:07:30;-11665.53;;;-144.48;100.00
4123;BME280;2075;51.062;6.920;2023-04-16T00:10:16;-11665.53;;;-144.48;100.00
4123;BME280;2075;51.062;6.920;2023-04-16T00:13:01;-11413.53;;;-144.48;100.00
4123;BME280;2075;51.062;6.920;2023-04-16T00:15:46;-11413.53;;;-144.48;100.00
4123;BME280;2075;51.062;6.920;2023-04-16T00:18:32;-11665.53;;;-144.48;100.00
4123;BME280;2075;51.062;6.920;2023-04-16T00:21:19;-11665.53;;;-144.48;100.00
4123;BME280;2075;51.062;6.920;2023-04-16T00:24:04;-11667.00;;;-144.48;100.00
4123;BME280;2075;51.062;6.920;2023-04-16T00:26:50;-11667.00;;;-144.48;100.00
4123;BME280;2075;51.062;6.920;2023-04-16T00:29:35;-11667.00;;;-144.48;100.00
4123;BME280;2075;51.062;6.920;2023-04-16T00:32:21;-11667.00;;;-144.48;100.00
4123;BME280;2075;51.062;6.920;2023-04-16T00:35:08;-11667.00;;;-144.48;100.00
4123;BME280;2075;51.062;6.920;2023-04-16T00:37:55;-11667.00;;;-144.48;100.00
4123;BME280;2075;51.062;6.920;2023-04-16T00:40:40;-11667.00;;;-144.48;100.00
4123;BME280;2075;51.062;6.920;2023-04-16T00:43:26;-11667.00;;;-144.48;100.00
4123;BME280;2075;51.062;6.920;2023-04-16T00:46:11;-11667.00;;;-144.48;100.00
4123;BME280;2075;51.062;6.920;2023-04-16T00:48:59;-11667.00;;;-144.48;100.00
4123;BME280;2075;51.062;6.920;2023-04-16T00:51:44;-11667.00;;;-144.48;100.00
4123;BME280;2075;51.062;6.920;2023-04-16T00:54:32;-11667.00;;;-144.48;100.00
4123;BME280;2075;51.062;6.920;2023-04-16T00:57:18;-11667.00;;;-144.48;100.00
4123;BME280;2075;51.062;6.920;2023-04-16T01:00:07;-11667.00;;;-144.48;100.00
4123;BME280;2075;51.062;6.920;2023-04-16T01:02:54;-11667.00;;;-144.48;100.00
4123;BME280;2075;51.062;6.920;2023-04-16T01:05:40;-11667.00;;;-144.48;100.00
4123;BME280;2075;51.062;6.920;2023-04-16T01:08:25;-11667.00;;;-144.48;100.00
4123;BME280;2075;51.062;6.920;2023-04-16T01:11:13;-11667.00;;;-144.48;100.00
4123;BME280;2075;51.062;6.920;2023-04-16T01:13:59;-11667.00;;;-144.48;100.00
4123;BME280;2075;51.062;6.920;2023-04-16T01:16:44;-11667.00;;;-144.48;100.00
4123;BME280;2075;51.062;6.920;2023-04-16T01:19:30;-11667.00;;;-144.48;100.00
4123;BME280;2075;51.062;6.920;2023-04-16T01:22:17;-11667.00;;;-144.48;100.00
4123;BME280;2075;51.062;6.920;2023-04-16T01:25:02;-11667.00;;;-144.48;100.00
4123;BME280;2075;51.062;6.920;2023-04-16T01:27:48;-11667.00;;;-144.48;100.00
4123;BME280;2075;51.062;6.920;2023-04-16T01:30:38;-11667.00;;;-144.48;100.00
4123;BME280;2075;51.062;6.920;2023-04-16T01:33:42;-11667.00;;;-144.48;100.00
4123;BME280;2075;51.062;6.920;2023-04-16T01:36:29;-11667.00;;;-144.48;100.00
4123;BME280;2075;51.062;6.920;2023-04-16T01:39:16;-11667.00;;;-144.48;100.00
4123;BME280;2075;51.062;6.920;2023-04-16T01:42:02;-11667.00;;;-144.48;100.00
4123;BME280;2075;51.062;6.920;2023-04-16T01:44:48;-11667.00;;;-144.48;100.00
4123;BME280;2075;51.062;6.920;2023-04-16T01:47:34;-11667.00;;;-144.48;100.00
4123;BME280;2075;51.062;6.920;2023-04-16T01:50:20;-11667.00;;;-144.48;100.00
4123;BME280;2075;51.062;6.920;2023-04-16T01:53:05;-11667.00;;;-144.48;100.00
4123;BME280;2075;51.062;6.920;2023-04-16T01:55:54;-11667.00;;;-144.48;100.00
4123;BME280;2075;51.062;6.920;2023-04-16T01:58:39;-11667.00;;;-144.48;100.00
4123;BME280;2075;51.062;6.920;2023-04-16T02:01:26;-11667.00;;;-144.48;100.00
4123;BME280;2075;51.062;6.920;2023-04-16T02:04:12;-11667.00;;;-144.48;100.00
4123;BME280;2075;51.062;6.920;2023-04-16T02:06:57;-11667.00;;;-144.48;100.00
4123;BME280;2075;51.062;6.920;2023-04-16T02:09:43;-11667.00;;;-144.48;100.00
4123;BME280;2075;51.062;6.920;2023-04-16T02:12:30;-11667.00;;;-144.48;100.00
4123;BME280;2075;51.062;6.920;2023-04-16T02:15:15;-11667.00;;;-144.48;100.00
4123;BME280;2075;51.062;6.920;2023-04-16T02:18:02;-11667.00;;;-144.48;100.00
4123;BME280;2075;51.062;6.920;2023-04-16T02:20:48;-11667.00;;;-144.48;100.00
4123;BME280;2075;51.062;6.920;2023-04-16T02:23:35;-11667.00;;;-144.48;100.00
4123;BME280;2075;51.062;6.920;2023-04-16T02:26:24;-11667.00;;;-144.48;100.00
4123;BME280;2075;51.062;6.920;2023-04-16T02:29:13;-11667.00;;;-144.48;100.00
4123;BME280;2075;51.062;6.920;2023-04-16T02:32:04;-11667.00;;;-144.48;100.00
4123;BME280;2075;51.062;6.920;2023-04-16T02:34:52;-11667.00;;;-144.48;100.00
4123;BME280;2075;51.062;6.920;2023-04-16T02:37:38;-11667.00;;;-144.48;100.00
4123;BME280;2075;51.062;6.920;2023-04-16T02:40:24;-11667.00;;;-144.48;100.00
4123;BME280;2075;51.062;6.920;2023-04-16T02:43:10;-11667.00;;;-144.48;100.00
4123;BME280;2075;51.062;6.920;2023-04-16T02:45:56;-11667.00;;;-144.48;100.00
4123;BME280;2075;51.062;6.920;2023-04-16T02:48:42;-11667.00;;;-144.48;100.00
4123;BME280;2075;51.062;6.920;2023-04-16T02:51:28;-11667.00;;;-144.48;100.00
4123;BME280;2075;51.062;6.920;2023-04-16T02:54:14;-11667.00;;;-144.48;100.00
4123;BME280;2075;51.062;6.920;2023-04-16T02:56:59;-11667.00;;;-144.48;100.00
4123;BME280;2075;51.062;6.920;2023-04-16T02:59:45;-11667.00;;;-144.48;100.00
4123;BME280;2075;51.062;6.920;2023-04-16T03:02:32;-11667.00;;;-144.48;100.00
4123;BME280;2075;51.062;6.920;2023-04-16T03:05:18;-11667.00;;;-144.48;100.00
4123;BME280;2075;51.062;6.920;2023-04-16T03:08:04;-11667.00;;;-144.48;100.00
4123;BME280;2075;51.062;6.920;2023-04-16T03:10:51;-11667.00;;;-144.48;100.00
4123;BME280;2075;51.062;6.920;2023-04-16T03:13:37;-11667.00;;;-144.48;100.00
4123;BME280;2075;51.062;6.920;2023-04-16T03:16:22;-11667.00;;;-144.48;100.00
4123;BME280;2075;51.062;6.920;2023-04-16T03:19:09;-11667.00;;;-144.48;100.00
4123;BME280;2075;51.062;6.920;2023-04-16T03:21:55;-11667.00;;;-144.48;100.00
4123;BME280;2075;51.062;6.920;2023-04-16T03:24:41;-11667.00;;;-144.48;100.00
4123;BME280;2075;51.062;6.920;2023-04-16T03:27:26;-11667.00;;;-144.48;100.00
4123;BME280;2075;51.062;6.920;2023-04-16T03:30:12;-11667.00;;;-144.48;100.00
4123;BME280;2075;51.062;6.920;2023-04-16T03:32:58;-11667.00;;;-144.48;100.00
4123;BME280;2075;51.062;6.920;2023-04-16T03:35:45;-11667.00;;;-144.48;100.00
4123;BME280;2075;51.062;6.920;2023-04-16T03:38:31;-11667.00;;;-144.48;100.00
4123;BME280;2075;51.062;6.920;2023-04-16T03:41:17;-11667.00;;;-144.48;100.00
4123;BME280;2075;51.062;6.920;2023-04-16T03:44:03;-11667.00;;;-144.48;100.00
4123;BME280;2075;51.062;6.920;2023-04-16T03:46:50;-11667.00;;;-144.48;100.00
4123;BME280;2075;51.062;6.920;2023-04-16T03:49:35;-11667.00;;;-144.48;100.00
4123;BME280;2075;51.062;6.920;2023-04-16T03:52:22;-11667.00;;;-144.48;100.00
4123;BME280;2075;51.062;6.920;2023-04-16T03:55:08;-11667.00;;;-144.48;100.00
4123;BME280;2075;51.062;6.920;2023-04-16T03:57:54;-11667.00;;;-144.48;100.00
4123;BME280;2075;51.062;6.920;2023-04-16T04:00:40;-11667.00;;;-144.48;100.00
4123;BME280;2075;51.062;6.920;2023-04-16T04:03:30;-11667.00;;;-144.48;100.00
4123;BME280;2075;51.062;6.920;2023-04-16T04:06:15;-11667.00;;;-144.48;100.00
4123;BME280;2075;51.062;6.920;2023-04-16T04:09:02;-11667.00;;;-144.48;100.00
4123;BME280;2075;51.062;6.920;2023-04-16T04:11:48;-11667.00;;;-144.48;100.00
4123;BME280;2075;51.062;6.920;2023-04-16T04:14:33;-11667.00;;;-144.48;100.00
4123;BME280;2075;51.062;6.920;2023-04-16T04:17:23;-11667.00;;;-144.48;100.00
4123;BME280;2075;51.062;6.920;2023-04-16T04:20:10;-11667.00;;;-144.48;100.00
4123;BME280;2075;51.062;6.920;2023-04-16T04:22:55;-11667.00;;;-144.48;100.00
4123;BME280;2075;51.062;6.920;2023-04-16T04:25:44;-11667.00;;;-144.48;100.00
4123;BME280;2075;51.062;6.920;2023-04-16T04:28:30;-11667.00;;;-144.48;100.00
4123;BME280;2075;51.062;6.920;2023-04-16T04:31:15;-11667.00;;;-144.48;100.00
4123;BME280;2075;51.062;6.920;2023-04-16T04:34:01;-11667.00;;;-144.48;100.00
4123;BME280;2075;51.062;6.920;2023-04-16T04:36:46;-11667.00;;;-144.48;100.00
4123;BME280;2075;51.062;6.920;2023-04-16T04:39:32;-11667.00;;;-144.48;100.00
4123;BME280;2075;51.062;6.920;2023-04-16T04:42:21;-11667.00;;;-144.48;100.00
4123;BME280;2075;51.062;6.920;2023-04-16T04:45:08;-11667.00;;;-144.48;100.00
4123;BME280;2075;51.062;6.920;2023-04-16T04:47:54;-11667.00;;;-144.48;100.00
4123;BME280;2075;51.062;6.920;2023-04-16T04:50:39;-11667.00;;;-144.48;100.00
4123;BME280;2075;51.062;6.920;2023-04-16T04:53:26;-11667.00;;;-144.48;100.00
4123;BME280;2075;51.062;6.920;2023-04-16T04:59:06;-11667.00;;;-144.48;100.00
4123;BME280;2075;51.062;6.920;2023-04-16T05:01:57;-11667.00;;;-144.48;100.00
4123;BME280;2075;51.062;6.920;2023-04-16T05:04:45;-11667.00;;;-144.48;100.00
4123;BME280;2075;51.062;6.920;2023-04-16T05:07:31;-11667.00;;;-144.48;100.00
4123;BME280;2075;51.062;6.920;2023-04-16T05:15:45;-11667.00;;;-144.48;100.00
4123;BME280;2075;51.062;6.920;2023-04-16T05:18:31;-11667.00;;;-144.48;100.00
4123;BME280;2075;51.062;6.920;2023-04-16T05:21:17;-11667.00;;;-144.48;100.00
4123;BME280;2075;51.062;6.920;2023-04-16T05:24:03;-11667.00;;;-144.48;100.00
4123;BME280;2075;51.062;6.920;2023-04-16T05:37:38;-11667.00;;;-144.48;100.00
4123;BME280;2075;51.062;6.920;2023-04-16T05:40:27;-11667.00;;;-144.48;100.00
4123;BME280;2075;51.062;6.920;2023-04-16T05:43:15;-11667.00;;;-144.48;100.00
4123;BME280;2075;51.062;6.920;2023-04-16T05:46:05;-11667.00;;;-144.48;100.00
4123;BME280;2075;51.062;6.920;2023-04-16T05:48:56;-11667.00;;;-144.48;100.00
4123;BME280;2075;51.062;6.920;2023-04-16T05:51:50;-11667.00;;;-144.48;100.00
4123;BME280;2075;51.062;6.920;2023-04-16T05:54:40;-11667.00;;;-144.48;100.00
4123;BME280;2075;51.062;6.920;2023-04-16T05:57:26;-11667.00;;;-144.48;100.00
4123;BME280;2075;51.062;6.920;2023-04-16T06:00:11;-11667.00;;;-144.48;100.00
4123;BME280;2075;51.062;6.920;2023-04-16T06:02:57;-11667.00;;;-144.48;100.00
4123;BME280;2075;51.062;6.920;2023-04-16T06:05:43;-11667.00;;;-144.48;100.00
4123;BME280;2075;51.062;6.920;2023-04-16T06:08:28;-11667.00;;;-144.48;100.00
4123;BME280;2075;51.062;6.920;2023-04-16T06:11:15;-11667.00;;;-144.48;100.00
4123;BME280;2075;51.062;6.920;2023-04-16T06:14:00;-11667.00;;;-144.48;100.00
4123;BME280;2075;51.062;6.920;2023-04-16T06:19:28;-11667.00;;;-144.48;100.00
4123;BME280;2075;51.062;6.920;2023-04-16T06:22:18;-11667.00;;;-144.48;100.00
4123;BME280;2075;51.062;6.920;2023-04-16T06:25:05;-11667.00;;;-144.48;100.00
4123;BME280;2075;51.062;6.920;2023-04-16T06:27:53;-11667.00;;;-144.48;100.00
4123;BME280;2075;51.062;6.920;2023-04-16T06:30:38;-11667.00;;;-144.48;100.00
4123;BME280;2075;51.062;6.920;2023-04-16T06:33:24;-11667.00;;;-144.48;100.00
4123;BME280;2075;51.062;6.920;2023-04-16T06:36:12;-11667.00;;;-144.48;100.00
4123;BME280;2075;51.062;6.920;2023-04-16T06:38:58;-11667.00;;;-144.48;100.00
4123;BME280;2075;51.062;6.920;2023-04-16T06:41:46;-11667.00;;;-144.48;100.00
4123;BME280;2075;51.062;6.920;2023-04-16T06:44:34;-11667.00;;;-144.48;100.00
4123;BME280;2075;51.062;6.920;2023-04-16T06:47:22;-11667.00;;;-144.48;100.00
4123;BME280;2075;51.062;6.920;2023-04-16T06:50:08;-11667.00;;;-144.48;100.00
4123;BME280;2075;51.062;6.920;2023-04-16T06:52:58;-11667.00;;;-144.48;100.00
4123;BME280;2075;51.062;6.920;2023-04-16T06:55:43;-11667.00;;;-144.48;100.00
4123;BME280;2075;51.062;6.920;2023-04-16T06:58:29;-11667.00;;;-144.48;100.00
4123;BME280;2075;51.062;6.920;2023-04-16T07:01:16;-11667.00;;;-144.48;100.00
4123;BME280;2075;51.062;6.920;2023-04-16T07:04:01;-11667.00;;;-144.48;100.00
4123;BME280;2075;51.062;6.920;2023-04-16T07:06:47;-11667.00;;;-144.48;100.00
4123;BME280;2075;51.062;6.920;2023-04-16T07:09:32;-11667.00;;;-144.48;100.00
4123;BME280;2075;51.062;6.920;2023-04-16T07:12:18;-11667.00;;;-144.48;100.00
4123;BME280;2075;51.062;6.920;2023-04-16T07:15:06;-11667.00;;;-144.48;100.00
4123;BME280;2075;51.062;6.920;2023-04-16T07:17:53;-11667.00;;;-144.48;100.00
4123;BME280;2075;51.062;6.920;2023-04-16T07:20:38;-11667.00;;;-144.48;100.00
4123;BME280;2075;51.062;6.920;2023-04-16T07:23:23;-11667.00;;;-144.48;100.00
4123;BME280;2075;51.062;6.920;2023-04-16T07:26:11;-11667.00;;;-144.48;100.00
4123;BME280;2075;51.062;6.920;2023-04-16T07:28:56;-11667.00;;;-144.48;100.00
4123;BME280;2075;51.062;6.920;2023-04-16T07:31:42;-10657.44;;;-144.48;100.00
4123;BME280;2075;51.062;6.920;2023-04-16T07:34:32;-4349.84;;;-144.48;100.00
4123;BME280;2075;51.062;6.920;2023-04-16T07:37:20;1969.97;;;-144.48;100.00
4123;BME280;2075;51.062;6.920;2023-04-16T07:40:07;4754.53;;;-144.48;100.00
4123;BME280;2075;51.062;6.920;2023-04-16T07:42:53;10584.44;;;-144.48;100.00
4123;BME280;2075;51.062;6.920;2023-04-16T07:45:39;14646.13;;;-144.48;100.00
4123;BME280;2075;51.062;6.920;2023-04-16T07:48:24;11853.19;;;-144.48;100.00
4123;BME280;2075;51.062;6.920;2023-04-16T07:51:15;14392.13;;;-144.48;100.00
4123;BME280;2075;51.062;6.920;2023-04-16T07:54:00;29411.56;;;-144.48;100.00
4123;BME280;2075;51.062;6.920;2023-04-16T07:56:46;52967.16;;;-144.48;100.00
4123;BME280;2075;51.062;6.920;2023-04-16T07:59:31;73099.81;;;-144.48;100.00
4123;BME280;2075;51.062;6.920;2023-04-16T08:02:16;75572.22;;;-144.48;100.00
4123;BME280;2075;51.062;6.920;2023-04-16T08:05:04;92677.25;;;-144.48;100.00
4123;BME280;2075;51.062;6.920;2023-04-16T08:07:52;93824.78;;;-144.48;84.68
4123;BME280;2075;51.062;6.920;2023-04-16T08:10:38;93814.63;;;-144.48;84.94
4123;BME280;2075;51.062;6.920;2023-04-16T08:13:23;93869.47;;;-144.48;89.53
4123;BME280;2075;51.062;6.920;2023-04-16T08:16:09;94170.16;;;-144.48;82.15
4123;BME280;2075;51.062;6.920;2023-04-16T08:18:54;93971.06;;;-144.48;87.97
4123;BME280;2075;51.062;6.920;2023-04-16T08:21:40;93473.38;;;-144.48;95.18
4123;BME280;2075;51.062;6.920;2023-04-16T08:24:29;93883.72;;;-144.48;92.72
4123;BME280;2075;51.062;6.920;2023-04-16T08:27:14;89242.97;;;-144.48;100.00
4123;BME280;2075;51.062;6.920;2023-04-16T08:30:00;79435.91;;;-144.48;100.00
4123;BME280;2075;51.062;6.920;2023-04-16T08:32:45;72936.25;;;-144.48;100.00
4123;BME280;2075;51.062;6.920;2023-04-16T08:35:31;79628.09;;;-144.48;100.00
4123;BME280;2075;51.062;6.920;2023-04-16T08:38:16;82042.47;;;-144.48;100.00
4123;BME280;2075;51.062;6.920;2023-04-16T08:41:05;92122.91;;;-144.48;100.00
4123;BME280;2075;51.062;6.920;2023-04-16T08:43:54;92764.56;;;-144.48;97.60
4123;BME280;2075;51.062;6.920;2023-04-16T08:46:40;93335.25;;;-144.48;95.44
4123;BME280;2075;51.062;6.920;2023-04-16T08:49:26;93690.72;;;-144.48;91.05
4123;BME280;2075;51.062;6.920;2023-04-16T08:52:17;93863.41;;;-144.48;88.36
4123;BME280;2075;51.062;6.920;2023-04-16T08:55:07;93847.13;;;-144.48;88.81
4123;BME280;2075;51.062;6.920;2023-04-16T08:58:04;93861.34;;;-144.48;90.55
4123;BME280;2075;51.062;6.920;2023-04-16T09:00:52;93696.81;;;-144.48;92.37
4123;BME280;2075;51.062;6.920;2023-04-16T09:03:39;93759.78;;;-144.48;90.15
4123;BME280;2075;51.062;6.920;2023-04-16T09:06:26;93828.84;;;-144.48;86.84
4123;BME280;2075;51.062;6.920;2023-04-16T09:09:12;93934.50;;;-144.48;85.97
4123;BME280;2075;51.062;6.920;2023-04-16T09:12:13;93973.09;;;-144.48;86.83
4123;BME280;2075;51.062;6.920;2023-04-16T09:15:01;93962.94;;;-144.48;83.69
4123;BME280;2075;51.062;6.920;2023-04-16T09:17:48;93922.31;;;-144.48;87.20
4123;BME280;2075;51.062;6.920;2023-04-16T09:20:33;93843.06;;;-144.48;89.37
4123;BME280;2075;51.062;6.920;2023-04-16T09:23:19;93875.59;;;-144.48;90.89
4123;BME280;2075;51.062;6.920;2023-04-16T09:26:05;93849.16;;;-144.48;88.74
4123;BME280;2075;51.062;6.920;2023-04-16T09:28:50;93857.28;;;-144.48;90.30
4123;BME280;2075;51.062;6.920;2023-04-16T09:31:38;93749.63;;;-144.48;90.13
4123;BME280;2075;51.062;6.920;2023-04-16T09:34:23;93879.66;;;-144.48;88.27
4123;BME280;2075;51.062;6.920;2023-04-16T09:37:15;93757.75;;;-144.48;89.11
4123;BME280;2075;51.062;6.920;2023-04-16T09:40:01;93958.88;;;-144.48;87.11
4123;BME280;2075;51.062;6.920;2023-04-16T09:42:48;93914.19;;;-144.48;85.40
4123;BME280;2075;51.062;6.920;2023-04-16T09:45:47;93926.38;;;-144.48;86.64
4123;BME280;2075;51.062;6.920;2023-04-16T09:48:34;93952.78;;;-144.48;88.14
4123;BME280;2075;51.062;6.920;2023-04-16T09:51:20;93999.50;;;-144.48;86.68
4123;BME280;2075;51.062;6.920;2023-04-16T09:54:06;93875.59;;;-144.48;83.83
4123;BME280;2075;51.062;6.920;2023-04-16T09:56:55;93936.53;;;-144.48;86.81
4123;BME280;2075;51.062;6.920;2023-04-16T09:59:41;93964.97;;;-144.48;85.88
4123;BME280;2075;51.062;6.920;2023-04-16T10:02:27;93985.28;;;-144.48;87.55
4123;BME280;2075;51.062;6.920;2023-04-16T10:05:14;93985.28;;;-144.48;86.71
4123;BME280;2075;51.062;6.920;2023-04-16T10:08:02;93952.78;;;-144.48;86.17
4123;BME280;2075;51.062;6.920;2023-04-16T10:10:58;93916.22;;;-144.48;87.79
4123;BME280;2075;51.062;6.920;2023-04-16T10:13:45;93960.91;;;-144.48;89.22
4123;BME280;2075;51.062;6.920;2023-04-16T10:16:31;93879.66;;;-144.48;90.22
4123;BME280;2075;51.062;6.920;2023-04-16T10:19:17;93853.22;;;-144.48;87.05
4123;BME280;2075;51.062;6.920;2023-04-16T10:22:06;93897.94;;;-144.48;83.74
4123;BME280;2075;51.062;6.920;2023-04-16T10:24:52;93851.22;;;-144.48;80.33
4123;BME280;2075;51.062;6.920;2023-04-16T10:27:39;93924.34;;;-144.48;81.10
4123;BME280;2075;51.062;6.920;2023-04-16T10:30:26;94013.72;;;-144.48;82.36
4123;BME280;2075;51.062;6.920;2023-04-16T10:33:12;94164.06;;;-144.48;82.41
4123;BME280;2075;51.062;6.920;2023-04-16T10:36:06;93932.47;;;-144.48;81.31
4123;BME280;2075;51.062;6.920;2023-04-16T10:38:56;93985.28;;;-144.48;81.22
4123;BME280;2075;51.062;6.920;2023-04-16T10:41:43;93969.03;;;-144.48;81.39
4123;BME280;2075;51.062;6.920;2023-04-16T10:44:30;93991.38;;;-144.48;80.97
4123;BME280;2075;51.062;6.920;2023-04-16T10:47:16;93977.16;;;-144.48;81.66
4123;BME280;2075;51.062;6.920;2023-04-16T10:50:14;94310.34;;;-144.48;83.77
4123;BME280;2075;51.062;6.920;2023-04-16T10:53:20;93993.41;;;-144.48;81.35
4123;BME280;2075;51.062;6.920;2023-04-16T10:56:12;93989.34;;;-144.48;81.99
4123;BME280;2075;51.062;6.920;2023-04-16T10:58:58;94001.53;;;-144.48;81.26
4123;BME280;2075;51.062;6.920;2023-04-16T11:01:45;94017.78;;;-144.48;80.94
4123;BME280;2075;51.062;6.920;2023-04-16T11:04:34;93924.34;;;-144.48;79.68
4123;BME280;2075;51.062;6.920;2023-04-16T11:07:31;93973.09;;;-144.48;78.24
4123;BME280;2075;51.062;6.920;2023-04-16T11:10:17;93936.53;;;-144.48;76.97
4123;BME280;2075;51.062;6.920;2023-04-16T11:13:05;93841.03;;;-144.48;75.18
4123;BME280;2075;51.062;6.920;2023-04-16T11:15:55;93851.22;;;-144.48;70.78
4123;BME280;2075;51.062;6.920;2023-04-16T11:18:41;93796.34;;;-144.48;67.55
4123;BME280;2075;51.062;6.920;2023-04-16T11:21:26;93843.06;;;-144.48;67.94
4123;BME280;2075;51.062;6.920;2023-04-16T11:24:15;93960.91;;;-144.48;69.60
4123;BME280;2075;51.062;6.920;2023-04-16T11:27:01;93912.16;;;-144.48;72.22
4123;BME280;2075;51.062;6.920;2023-04-16T11:29:57;93841.03;;;-144.48;70.26
4123;BME280;2075;51.062;6.920;2023-04-16T11:32:48;93836.97;;;-144.48;70.36
4123;BME280;2075;51.062;6.920;2023-04-16T11:35:35;93891.84;;;-144.48;69.27
4123;BME280;2075;51.062;6.920;2023-04-16T11:38:33;94090.91;;;-144.48;67.22
4123;BME280;2075;51.062;6.920;2023-04-16T11:41:19;93893.88;;;-144.48;69.57
4123;BME280;2075;51.062;6.920;2023-04-16T11:44:16;93899.97;;;-144.48;70.20
4123;BME280;2075;51.062;6.920;2023-04-16T11:47:05;93830.88;;;-144.48;68.44
4123;BME280;2075;51.062;6.920;2023-04-16T11:49:50;93853.22;;;-144.48;66.54
4123;BME280;2075;51.062;6.920;2023-04-16T11:52:36;93822.75;;;-144.48;67.08
4123;BME280;2075;51.062;6.920;2023-04-16T11:55:22;93822.75;;;-144.48;64.20
4123;BME280;2075;51.062;6.920;2023-04-16T11:58:11;93798.38;;;-144.48;66.70
4123;BME280;2075;51.062;6.920;2023-04-16T12:00:58;93841.03;;;-144.48;66.62
4123;BME280;2075;51.062;6.920;2023-04-16T12:03:48;93881.69;;;-144.48;66.04
4123;BME280;2075;51.062;6.920;2023-04-16T12:06:34;93926.38;;;-144.48;71.57
4123;BME280;2075;51.062;6.920;2023-04-16T12:09:24;93928.41;;;-144.48;72.82
4123;BME280;2075;51.062;6.920;2023-04-16T12:12:26;93969.03;;;-144.48;71.64
4123;BME280;2075;51.062;6.920;2023-04-16T12:15:13;93867.47;;;-144.48;69.20
4123;BME280;2075;51.062;6.920;2023-04-16T12:18:05;93814.63;;;-144.48;67.17
4123;BME280;2075;51.062;6.920;2023-04-16T12:20:52;93721.19;;;-144.48;63.38
4123;BME280;2075;51.062;6.920;2023-04-16T12:23:37;93534.31;;;-144.48;57.55
4123;BME280;2075;51.062;6.920;2023-04-16T12:26:24;93589.16;;;-144.48;55.22
4123;BME280;2075;51.062;6.920;2023-04-16T12:29:14;93650.09;;;-144.48;53.30
4123;BME280;2075;51.062;6.920;2023-04-16T12:32:00;93672.44;;;-144.48;52.34
4123;BME280;2075;51.062;6.920;2023-04-16T12:34:50;93698.84;;;-144.48;52.82
4123;BME280;2075;51.062;6.920;2023-04-16T12:37:37;93769.94;;;-144.48;55.43
4123;BME280;2075;51.062;6.920;2023-04-16T12:40:23;93658.22;;;-144.48;56.07
4123;BME280;2075;51.062;6.920;2023-04-16T12:43:09;93847.13;;;-144.48;60.67
4123;BME280;2075;51.062;6.920;2023-04-16T12:45:54;93904.03;;;-144.48;62.72
4123;BME280;2075;51.062;6.920;2023-04-16T12:48:40;93885.75;;;-144.48;60.86
4123;BME280;2075;51.062;6.920;2023-04-16T12:51:26;93851.22;;;-144.48;61.73
4123;BME280;2075;51.062;6.920;2023-04-16T12:54:13;93822.75;;;-144.48;59.14
4123;BME280;2075;51.062;6.920;2023-04-16T12:56:58;93834.94;;;-144.48;57.70
4123;BME280;2075;51.062;6.920;2023-04-16T12:59:47;93867.47;;;-144.48;58.91
4123;BME280;2075;51.062;6.920;2023-04-16T13:02:33;93851.22;;;-144.48;59.80
4123;BME280;2075;51.062;6.920;2023-04-16T13:05:18;93879.66;;;-144.48;59.01
4123;BME280;2075;51.062;6.920;2023-04-16T13:08:04;93796.34;;;-144.48;56.05
4123;BME280;2075;51.062;6.920;2023-04-16T13:10:51;93611.50;;;-144.48;56.93
4123;BME280;2075;51.062;6.920;2023-04-16T13:13:36;93818.69;;;-144.48;57.59
4123;BME280;2075;51.062;6.920;2023-04-16T13:16:21;93806.50;;;-144.48;57.22
4123;BME280;2075;51.062;6.920;2023-04-16T13:19:07;93847.13;;;-144.48;59.25
4123;BME280;2075;51.062;6.920;2023-04-16T13:21:52;93851.22;;;-144.48;58.12
4123;BME280;2075;51.062;6.920;2023-04-16T13:24:38;93834.94;;;-144.48;58.69
4123;BME280;2075;51.062;6.920;2023-04-16T13:27:25;93847.13;;;-144.48;56.81
4123;BME280;2075;51.062;6.920;2023-04-16T13:30:10;93895.91;;;-144.48;58.28
4123;BME280;2075;51.062;6.920;2023-04-16T13:32:56;93800.41;;;-144.48;56.06
4123;BME280;2075;51.062;6.920;2023-04-16T13:35:41;93765.88;;;-144.48;56.00
4123;BME280;2075;51.062;6.920;2023-04-16T13:38:26;93690.72;;;-144.48;53.53
4123;BME280;2075;51.062;6.920;2023-04-16T13:41:12;93692.75;;;-144.48;51.58
4123;BME280;2075;51.062;6.920;2023-04-16T13:43:59;93656.19;;;-144.48;52.16
4123;BME280;2075;51.062;6.920;2023-04-16T13:46:47;93694.78;;;-144.48;52.37
4123;BME280;2075;51.062;6.920;2023-04-16T13:49:32;93684.63;;;-144.48;52.19
4123;BME280;2075;51.062;6.920;2023-04-16T13:52:18;93711.03;;;-144.48;52.54
4123;BME280;2075;51.062;6.920;2023-04-16T13:55:04;93715.09;;;-144.48;52.40
4123;BME280;2075;51.062;6.920;2023-04-16T13:57:51;93936.53;;;-144.48;52.18
4123;BME280;2075;51.062;6.920;2023-04-16T14:00:38;93774.00;;;-144.48;53.89
4123;BME280;2075;51.062;6.920;2023-04-16T14:03:24;93834.94;;;-144.48;54.96
4123;BME280;2075;51.062;6.920;2023-04-16T14:06:09;93810.56;;;-144.48;53.80
4123;BME280;2075;51.062;6.920;2023-04-16T14:08:56;93887.78;;;-144.48;57.25
4123;BME280;2075;51.062;6.920;2023-04-16T14:11:41;93895.91;;;-144.48;57.77
4123;BME280;2075;51.062;6.920;2023-04-16T14:14:27;93836.97;;;-144.48;58.05
4123;BME280;2075;51.062;6.920;2023-04-16T14:17:14;93824.78;;;-144.48;56.30
4123;BME280;2075;51.062;6.920;2023-04-16T14:19:59;93867.47;;;-144.48;58.35
4123;BME280;2075;51.062;6.920;2023-04-16T14:22:44;93851.22;;;-144.48;59.19
4123;BME280;2075;51.062;6.920;2023-04-16T14:25:31;93908.09;;;-144.48;60.01
4123;BME280;2075;51.062;6.920;2023-04-16T14:28:16;93879.66;;;-144.48;58.79
4123;BME280;2075;51.062;6.920;2023-04-16T14:31:01;93851.22;;;-144.48;58.67
4123;BME280;2075;51.062;6.920;2023-04-16T14:33:48;93782.13;;;-144.48;56.58
4123;BME280;2075;51.062;6.920;2023-04-16T14:36:35;93800.41;;;-144.48;56.61
4123;BME280;2075;51.062;6.920;2023-04-16T14:39:20;93810.56;;;-144.48;55.65
4123;BME280;2075;51.062;6.920;2023-04-16T14:42:06;93759.78;;;-144.48;54.91
4123;BME280;2075;51.062;6.920;2023-04-16T14:44:51;93782.13;;;-144.48;54.99
4123;BME280;2075;51.062;6.920;2023-04-16T14:47:37;93589.16;;;-144.48;53.07
4123;BME280;2075;51.062;6.920;2023-04-16T14:50:30;93501.81;;;-144.48;51.47
4123;BME280;2075;51.062;6.920;2023-04-16T14:53:15;93680.56;;;-144.48;52.23
4123;BME280;2075;51.062;6.920;2023-04-16T14:56:02;93782.13;;;-144.48;53.27